<?xml version="1.0" encoding="UTF-8" standalone="no" ?>
<gpx xmlns="http://www.topografix.com/GPX/1/1" xmlns:xsi="http://www.w3.org/2001/XMLSchema-instance" xsi:schemaLocation="http://www.topografix.com/GPX/1/1 http://www.topografix.com/GPX/1/1/gpx.xsd" version="1.1" creator="VisuGPX - https://www.visugpx.com">
  <metadata>
    <name>ASLPM marche à Luché le 14 Décembre 2015</name>
    <desc><![CDATA[ASLPM marche à Luché le 14 décembre 2015
]]></desc>
  </metadata>
  <trk>
    <name><![CDATA[14/12/2015 09:06:35]]></name>
    <trkseg>
      <trkpt lat="46.25179" lon="-0.88635">
        <ele>5.9</ele>
        <time>2015-12-14T08:06:35Z</time>
      </trkpt>
      <trkpt lat="46.25178" lon="-0.88635">
        <ele>5.9</ele>
        <time>2015-12-14T08:06:36Z</time>
      </trkpt>
      <trkpt lat="46.25179" lon="-0.88634">
        <ele>5.9</ele>
        <time>2015-12-14T08:06:37Z</time>
      </trkpt>
      <trkpt lat="46.25182" lon="-0.88632">
        <ele>5.9</ele>
        <time>2015-12-14T08:06:38Z</time>
      </trkpt>
      <trkpt lat="46.25185" lon="-0.88634">
        <ele>5.9</ele>
        <time>2015-12-14T08:06:40Z</time>
      </trkpt>
      <trkpt lat="46.25183" lon="-0.88636">
        <ele>6</ele>
        <time>2015-12-14T08:06:42Z</time>
      </trkpt>
      <trkpt lat="46.25171" lon="-0.88637">
        <ele>5.9</ele>
        <time>2015-12-14T08:07:09Z</time>
      </trkpt>
      <trkpt lat="46.25159" lon="-0.88641">
        <ele>5.7</ele>
        <time>2015-12-14T08:08:18Z</time>
      </trkpt>
      <trkpt lat="46.25142" lon="-0.88652">
        <ele>5.1</ele>
        <time>2015-12-14T08:08:40Z</time>
      </trkpt>
      <trkpt lat="46.2514" lon="-0.88656">
        <ele>5</ele>
        <time>2015-12-14T08:08:43Z</time>
      </trkpt>
      <trkpt lat="46.2514" lon="-0.88678">
        <ele>5</ele>
        <time>2015-12-14T08:08:57Z</time>
      </trkpt>
      <trkpt lat="46.25123" lon="-0.88688">
        <ele>5</ele>
        <time>2015-12-14T08:09:12Z</time>
      </trkpt>
      <trkpt lat="46.25105" lon="-0.88695">
        <ele>5</ele>
        <time>2015-12-14T08:09:27Z</time>
      </trkpt>
      <trkpt lat="46.25087" lon="-0.88703">
        <ele>5</ele>
        <time>2015-12-14T08:09:42Z</time>
      </trkpt>
      <trkpt lat="46.25069" lon="-0.88708">
        <ele>5</ele>
        <time>2015-12-14T08:09:55Z</time>
      </trkpt>
      <trkpt lat="46.25052" lon="-0.88716">
        <ele>5</ele>
        <time>2015-12-14T08:10:09Z</time>
      </trkpt>
      <trkpt lat="46.25034" lon="-0.88725">
        <ele>4.9</ele>
        <time>2015-12-14T08:10:23Z</time>
      </trkpt>
      <trkpt lat="46.25017" lon="-0.88739">
        <ele>4.5</ele>
        <time>2015-12-14T08:10:37Z</time>
      </trkpt>
      <trkpt lat="46.25003" lon="-0.88754">
        <ele>4.9</ele>
        <time>2015-12-14T08:10:50Z</time>
      </trkpt>
      <trkpt lat="46.24989" lon="-0.88773">
        <ele>5</ele>
        <time>2015-12-14T08:11:04Z</time>
      </trkpt>
      <trkpt lat="46.2498" lon="-0.88795">
        <ele>4.8</ele>
        <time>2015-12-14T08:11:18Z</time>
      </trkpt>
      <trkpt lat="46.2498" lon="-0.88821">
        <ele>4.3</ele>
        <time>2015-12-14T08:11:31Z</time>
      </trkpt>
      <trkpt lat="46.24984" lon="-0.88846">
        <ele>4.3</ele>
        <time>2015-12-14T08:11:44Z</time>
      </trkpt>
      <trkpt lat="46.24988" lon="-0.88874">
        <ele>4.2</ele>
        <time>2015-12-14T08:11:58Z</time>
      </trkpt>
      <trkpt lat="46.24994" lon="-0.88898">
        <ele>4.1</ele>
        <time>2015-12-14T08:12:11Z</time>
      </trkpt>
      <trkpt lat="46.25" lon="-0.88925">
        <ele>4.3</ele>
        <time>2015-12-14T08:12:25Z</time>
      </trkpt>
      <trkpt lat="46.25007" lon="-0.8895">
        <ele>4.6</ele>
        <time>2015-12-14T08:12:38Z</time>
      </trkpt>
      <trkpt lat="46.25015" lon="-0.88974">
        <ele>4</ele>
        <time>2015-12-14T08:12:52Z</time>
      </trkpt>
      <trkpt lat="46.25026" lon="-0.88995">
        <ele>4.8</ele>
        <time>2015-12-14T08:13:05Z</time>
      </trkpt>
      <trkpt lat="46.25033" lon="-0.89011">
        <ele>4.5</ele>
        <time>2015-12-14T08:13:15Z</time>
      </trkpt>
      <trkpt lat="46.2504" lon="-0.89025">
        <ele>4.1</ele>
        <time>2015-12-14T08:13:23Z</time>
      </trkpt>
      <trkpt lat="46.25049" lon="-0.89047">
        <ele>4.5</ele>
        <time>2015-12-14T08:13:36Z</time>
      </trkpt>
      <trkpt lat="46.25056" lon="-0.89071">
        <ele>5</ele>
        <time>2015-12-14T08:13:49Z</time>
      </trkpt>
      <trkpt lat="46.25061" lon="-0.89097">
        <ele>4.8</ele>
        <time>2015-12-14T08:14:03Z</time>
      </trkpt>
      <trkpt lat="46.25063" lon="-0.89123">
        <ele>4.9</ele>
        <time>2015-12-14T08:14:16Z</time>
      </trkpt>
      <trkpt lat="46.25064" lon="-0.8915">
        <ele>5</ele>
        <time>2015-12-14T08:14:29Z</time>
      </trkpt>
      <trkpt lat="46.25071" lon="-0.89172">
        <ele>5</ele>
        <time>2015-12-14T08:14:42Z</time>
      </trkpt>
      <trkpt lat="46.25073" lon="-0.89173">
        <ele>5</ele>
        <time>2015-12-14T08:14:43Z</time>
      </trkpt>
      <trkpt lat="46.25092" lon="-0.89172">
        <ele>4.7</ele>
        <time>2015-12-14T08:14:58Z</time>
      </trkpt>
      <trkpt lat="46.2511" lon="-0.89164">
        <ele>4.1</ele>
        <time>2015-12-14T08:15:12Z</time>
      </trkpt>
      <trkpt lat="46.25127" lon="-0.89153">
        <ele>4</ele>
        <time>2015-12-14T08:15:27Z</time>
      </trkpt>
      <trkpt lat="46.25135" lon="-0.89147">
        <ele>4</ele>
        <time>2015-12-14T08:15:34Z</time>
      </trkpt>
      <trkpt lat="46.25151" lon="-0.89137">
        <ele>4</ele>
        <time>2015-12-14T08:15:48Z</time>
      </trkpt>
      <trkpt lat="46.25168" lon="-0.89125">
        <ele>4</ele>
        <time>2015-12-14T08:16:02Z</time>
      </trkpt>
      <trkpt lat="46.25184" lon="-0.89113">
        <ele>4</ele>
        <time>2015-12-14T08:16:17Z</time>
      </trkpt>
      <trkpt lat="46.25197" lon="-0.89102">
        <ele>4</ele>
        <time>2015-12-14T08:16:30Z</time>
      </trkpt>
      <trkpt lat="46.25208" lon="-0.89091">
        <ele>4</ele>
        <time>2015-12-14T08:16:40Z</time>
      </trkpt>
      <trkpt lat="46.25223" lon="-0.89077">
        <ele>4</ele>
        <time>2015-12-14T08:16:54Z</time>
      </trkpt>
      <trkpt lat="46.2524" lon="-0.89064">
        <ele>4</ele>
        <time>2015-12-14T08:17:08Z</time>
      </trkpt>
      <trkpt lat="46.25256" lon="-0.89051">
        <ele>4</ele>
        <time>2015-12-14T08:17:23Z</time>
      </trkpt>
      <trkpt lat="46.2527" lon="-0.89035">
        <ele>4</ele>
        <time>2015-12-14T08:17:38Z</time>
      </trkpt>
      <trkpt lat="46.25284" lon="-0.89025">
        <ele>4.2</ele>
        <time>2015-12-14T08:17:50Z</time>
      </trkpt>
      <trkpt lat="46.25298" lon="-0.89041">
        <ele>4.4</ele>
        <time>2015-12-14T08:18:04Z</time>
      </trkpt>
      <trkpt lat="46.25312" lon="-0.89059">
        <ele>4.2</ele>
        <time>2015-12-14T08:18:18Z</time>
      </trkpt>
      <trkpt lat="46.25325" lon="-0.89078">
        <ele>4.1</ele>
        <time>2015-12-14T08:18:31Z</time>
      </trkpt>
      <trkpt lat="46.25338" lon="-0.89098">
        <ele>4.6</ele>
        <time>2015-12-14T08:18:45Z</time>
      </trkpt>
      <trkpt lat="46.25352" lon="-0.89117">
        <ele>5</ele>
        <time>2015-12-14T08:18:59Z</time>
      </trkpt>
      <trkpt lat="46.25366" lon="-0.89136">
        <ele>5</ele>
        <time>2015-12-14T08:19:13Z</time>
      </trkpt>
      <trkpt lat="46.25369" lon="-0.89137">
        <ele>5</ele>
        <time>2015-12-14T08:19:16Z</time>
      </trkpt>
      <trkpt lat="46.25375" lon="-0.89135">
        <ele>5</ele>
        <time>2015-12-14T08:19:20Z</time>
      </trkpt>
      <trkpt lat="46.2538" lon="-0.8913">
        <ele>5</ele>
        <time>2015-12-14T08:19:25Z</time>
      </trkpt>
      <trkpt lat="46.25384" lon="-0.89126">
        <ele>5</ele>
        <time>2015-12-14T08:19:29Z</time>
      </trkpt>
      <trkpt lat="46.25401" lon="-0.89113">
        <ele>5</ele>
        <time>2015-12-14T08:19:42Z</time>
      </trkpt>
      <trkpt lat="46.25416" lon="-0.89098">
        <ele>5</ele>
        <time>2015-12-14T08:19:56Z</time>
      </trkpt>
      <trkpt lat="46.25432" lon="-0.89085">
        <ele>5</ele>
        <time>2015-12-14T08:20:10Z</time>
      </trkpt>
      <trkpt lat="46.25449" lon="-0.89073">
        <ele>4.5</ele>
        <time>2015-12-14T08:20:24Z</time>
      </trkpt>
      <trkpt lat="46.25466" lon="-0.89061">
        <ele>4</ele>
        <time>2015-12-14T08:20:37Z</time>
      </trkpt>
      <trkpt lat="46.25483" lon="-0.89052">
        <ele>4.5</ele>
        <time>2015-12-14T08:20:51Z</time>
      </trkpt>
      <trkpt lat="46.25499" lon="-0.89037">
        <ele>5</ele>
        <time>2015-12-14T08:21:04Z</time>
      </trkpt>
      <trkpt lat="46.2551" lon="-0.89016">
        <ele>5</ele>
        <time>2015-12-14T08:21:17Z</time>
      </trkpt>
      <trkpt lat="46.25515" lon="-0.8899">
        <ele>5.2</ele>
        <time>2015-12-14T08:21:31Z</time>
      </trkpt>
      <trkpt lat="46.25518" lon="-0.88963">
        <ele>5.4</ele>
        <time>2015-12-14T08:21:45Z</time>
      </trkpt>
      <trkpt lat="46.25519" lon="-0.88936">
        <ele>5.3</ele>
        <time>2015-12-14T08:21:59Z</time>
      </trkpt>
      <trkpt lat="46.2552" lon="-0.88909">
        <ele>5.3</ele>
        <time>2015-12-14T08:22:13Z</time>
      </trkpt>
      <trkpt lat="46.2552" lon="-0.88881">
        <ele>5.3</ele>
        <time>2015-12-14T08:22:27Z</time>
      </trkpt>
      <trkpt lat="46.25521" lon="-0.88854">
        <ele>5.2</ele>
        <time>2015-12-14T08:22:41Z</time>
      </trkpt>
      <trkpt lat="46.25522" lon="-0.88826">
        <ele>5.2</ele>
        <time>2015-12-14T08:22:55Z</time>
      </trkpt>
      <trkpt lat="46.25525" lon="-0.88799">
        <ele>5.1</ele>
        <time>2015-12-14T08:23:09Z</time>
      </trkpt>
      <trkpt lat="46.25529" lon="-0.88774">
        <ele>4.8</ele>
        <time>2015-12-14T08:23:22Z</time>
      </trkpt>
      <trkpt lat="46.25533" lon="-0.88747">
        <ele>4.1</ele>
        <time>2015-12-14T08:23:36Z</time>
      </trkpt>
      <trkpt lat="46.25538" lon="-0.88721">
        <ele>4.7</ele>
        <time>2015-12-14T08:23:49Z</time>
      </trkpt>
      <trkpt lat="46.25542" lon="-0.88694">
        <ele>5</ele>
        <time>2015-12-14T08:24:03Z</time>
      </trkpt>
      <trkpt lat="46.25546" lon="-0.88667">
        <ele>4.4</ele>
        <time>2015-12-14T08:24:17Z</time>
      </trkpt>
      <trkpt lat="46.25549" lon="-0.88642">
        <ele>4.2</ele>
        <time>2015-12-14T08:24:30Z</time>
      </trkpt>
      <trkpt lat="46.25552" lon="-0.88616">
        <ele>3.4</ele>
        <time>2015-12-14T08:24:43Z</time>
      </trkpt>
      <trkpt lat="46.25555" lon="-0.8859">
        <ele>4.5</ele>
        <time>2015-12-14T08:24:57Z</time>
      </trkpt>
      <trkpt lat="46.25566" lon="-0.8857">
        <ele>4.8</ele>
        <time>2015-12-14T08:25:12Z</time>
      </trkpt>
      <trkpt lat="46.25578" lon="-0.8855">
        <ele>5</ele>
        <time>2015-12-14T08:25:26Z</time>
      </trkpt>
      <trkpt lat="46.25591" lon="-0.88531">
        <ele>5</ele>
        <time>2015-12-14T08:25:40Z</time>
      </trkpt>
      <trkpt lat="46.25593" lon="-0.88529">
        <ele>5</ele>
        <time>2015-12-14T08:25:42Z</time>
      </trkpt>
      <trkpt lat="46.25603" lon="-0.88515">
        <ele>5</ele>
        <time>2015-12-14T08:25:53Z</time>
      </trkpt>
      <trkpt lat="46.25606" lon="-0.88514">
        <ele>5</ele>
        <time>2015-12-14T08:25:56Z</time>
      </trkpt>
      <trkpt lat="46.25618" lon="-0.88493">
        <ele>5.1</ele>
        <time>2015-12-14T08:26:10Z</time>
      </trkpt>
      <trkpt lat="46.25629" lon="-0.88471">
        <ele>5.7</ele>
        <time>2015-12-14T08:26:24Z</time>
      </trkpt>
      <trkpt lat="46.25641" lon="-0.88449">
        <ele>6</ele>
        <time>2015-12-14T08:26:38Z</time>
      </trkpt>
      <trkpt lat="46.25651" lon="-0.88426">
        <ele>6.4</ele>
        <time>2015-12-14T08:26:52Z</time>
      </trkpt>
      <trkpt lat="46.2566" lon="-0.88402">
        <ele>6.9</ele>
        <time>2015-12-14T08:27:05Z</time>
      </trkpt>
      <trkpt lat="46.25668" lon="-0.88377">
        <ele>7</ele>
        <time>2015-12-14T08:27:20Z</time>
      </trkpt>
      <trkpt lat="46.25676" lon="-0.88353">
        <ele>7</ele>
        <time>2015-12-14T08:27:34Z</time>
      </trkpt>
      <trkpt lat="46.25677" lon="-0.8835">
        <ele>7</ele>
        <time>2015-12-14T08:27:36Z</time>
      </trkpt>
      <trkpt lat="46.25685" lon="-0.88327">
        <ele>7.1</ele>
        <time>2015-12-14T08:27:49Z</time>
      </trkpt>
      <trkpt lat="46.25692" lon="-0.88303">
        <ele>7.1</ele>
        <time>2015-12-14T08:28:02Z</time>
      </trkpt>
      <trkpt lat="46.25699" lon="-0.88277">
        <ele>7</ele>
        <time>2015-12-14T08:28:15Z</time>
      </trkpt>
      <trkpt lat="46.25707" lon="-0.88251">
        <ele>7.5</ele>
        <time>2015-12-14T08:28:28Z</time>
      </trkpt>
      <trkpt lat="46.25714" lon="-0.88227">
        <ele>7.3</ele>
        <time>2015-12-14T08:28:41Z</time>
      </trkpt>
      <trkpt lat="46.25722" lon="-0.88201">
        <ele>7</ele>
        <time>2015-12-14T08:28:55Z</time>
      </trkpt>
      <trkpt lat="46.25729" lon="-0.88176">
        <ele>6.7</ele>
        <time>2015-12-14T08:29:08Z</time>
      </trkpt>
      <trkpt lat="46.25733" lon="-0.8815">
        <ele>6.9</ele>
        <time>2015-12-14T08:29:23Z</time>
      </trkpt>
      <trkpt lat="46.25736" lon="-0.88136">
        <ele>7</ele>
        <time>2015-12-14T08:30:24Z</time>
      </trkpt>
      <trkpt lat="46.25747" lon="-0.88115">
        <ele>7</ele>
        <time>2015-12-14T08:30:42Z</time>
      </trkpt>
      <trkpt lat="46.25752" lon="-0.88109">
        <ele>6.9</ele>
        <time>2015-12-14T08:30:47Z</time>
      </trkpt>
      <trkpt lat="46.25759" lon="-0.88099">
        <ele>6.8</ele>
        <time>2015-12-14T08:30:55Z</time>
      </trkpt>
      <trkpt lat="46.25771" lon="-0.88078">
        <ele>7</ele>
        <time>2015-12-14T08:31:09Z</time>
      </trkpt>
      <trkpt lat="46.25783" lon="-0.88058">
        <ele>7</ele>
        <time>2015-12-14T08:31:22Z</time>
      </trkpt>
      <trkpt lat="46.25795" lon="-0.88039">
        <ele>6.8</ele>
        <time>2015-12-14T08:31:36Z</time>
      </trkpt>
      <trkpt lat="46.25804" lon="-0.88015">
        <ele>7</ele>
        <time>2015-12-14T08:31:50Z</time>
      </trkpt>
      <trkpt lat="46.25813" lon="-0.8799">
        <ele>7.5</ele>
        <time>2015-12-14T08:32:03Z</time>
      </trkpt>
      <trkpt lat="46.25818" lon="-0.87964">
        <ele>8</ele>
        <time>2015-12-14T08:32:16Z</time>
      </trkpt>
      <trkpt lat="46.25819" lon="-0.87937">
        <ele>8</ele>
        <time>2015-12-14T08:32:30Z</time>
      </trkpt>
      <trkpt lat="46.25817" lon="-0.87911">
        <ele>8</ele>
        <time>2015-12-14T08:32:43Z</time>
      </trkpt>
      <trkpt lat="46.25815" lon="-0.87884">
        <ele>8</ele>
        <time>2015-12-14T08:32:57Z</time>
      </trkpt>
      <trkpt lat="46.25814" lon="-0.87875">
        <ele>8</ele>
        <time>2015-12-14T08:33:02Z</time>
      </trkpt>
      <trkpt lat="46.25813" lon="-0.87863">
        <ele>8</ele>
        <time>2015-12-14T08:33:08Z</time>
      </trkpt>
      <trkpt lat="46.25814" lon="-0.87837">
        <ele>8</ele>
        <time>2015-12-14T08:33:22Z</time>
      </trkpt>
      <trkpt lat="46.25815" lon="-0.87809">
        <ele>8.6</ele>
        <time>2015-12-14T08:33:36Z</time>
      </trkpt>
      <trkpt lat="46.25817" lon="-0.87783">
        <ele>8.1</ele>
        <time>2015-12-14T08:33:49Z</time>
      </trkpt>
      <trkpt lat="46.2582" lon="-0.8776">
        <ele>8</ele>
        <time>2015-12-14T08:34:01Z</time>
      </trkpt>
      <trkpt lat="46.25824" lon="-0.87741">
        <ele>8</ele>
        <time>2015-12-14T08:35:17Z</time>
      </trkpt>
      <trkpt lat="46.25828" lon="-0.87715">
        <ele>8</ele>
        <time>2015-12-14T08:35:31Z</time>
      </trkpt>
      <trkpt lat="46.25833" lon="-0.87688">
        <ele>8</ele>
        <time>2015-12-14T08:35:45Z</time>
      </trkpt>
      <trkpt lat="46.25839" lon="-0.87662">
        <ele>7.8</ele>
        <time>2015-12-14T08:35:59Z</time>
      </trkpt>
      <trkpt lat="46.25845" lon="-0.87636">
        <ele>7.5</ele>
        <time>2015-12-14T08:36:13Z</time>
      </trkpt>
      <trkpt lat="46.2585" lon="-0.87609">
        <ele>7</ele>
        <time>2015-12-14T08:36:27Z</time>
      </trkpt>
      <trkpt lat="46.25855" lon="-0.87582">
        <ele>7</ele>
        <time>2015-12-14T08:36:41Z</time>
      </trkpt>
      <trkpt lat="46.2586" lon="-0.87556">
        <ele>7</ele>
        <time>2015-12-14T08:36:58Z</time>
      </trkpt>
      <trkpt lat="46.25864" lon="-0.87529">
        <ele>7</ele>
        <time>2015-12-14T08:37:12Z</time>
      </trkpt>
      <trkpt lat="46.25868" lon="-0.87504">
        <ele>7.7</ele>
        <time>2015-12-14T08:37:27Z</time>
      </trkpt>
      <trkpt lat="46.25873" lon="-0.87478">
        <ele>7.6</ele>
        <time>2015-12-14T08:37:41Z</time>
      </trkpt>
      <trkpt lat="46.25878" lon="-0.87452">
        <ele>7.1</ele>
        <time>2015-12-14T08:37:54Z</time>
      </trkpt>
      <trkpt lat="46.25883" lon="-0.87426">
        <ele>7</ele>
        <time>2015-12-14T08:38:08Z</time>
      </trkpt>
      <trkpt lat="46.25888" lon="-0.87399">
        <ele>7.6</ele>
        <time>2015-12-14T08:38:22Z</time>
      </trkpt>
      <trkpt lat="46.25891" lon="-0.87373">
        <ele>7.9</ele>
        <time>2015-12-14T08:38:36Z</time>
      </trkpt>
      <trkpt lat="46.25893" lon="-0.87361">
        <ele>7.8</ele>
        <time>2015-12-14T08:38:43Z</time>
      </trkpt>
      <trkpt lat="46.25898" lon="-0.87336">
        <ele>7.1</ele>
        <time>2015-12-14T08:39:01Z</time>
      </trkpt>
      <trkpt lat="46.25902" lon="-0.87309">
        <ele>7.4</ele>
        <time>2015-12-14T08:39:14Z</time>
      </trkpt>
      <trkpt lat="46.25903" lon="-0.87282">
        <ele>7.9</ele>
        <time>2015-12-14T08:39:27Z</time>
      </trkpt>
      <trkpt lat="46.25901" lon="-0.87256">
        <ele>8</ele>
        <time>2015-12-14T08:39:41Z</time>
      </trkpt>
      <trkpt lat="46.25897" lon="-0.87229">
        <ele>8</ele>
        <time>2015-12-14T08:39:54Z</time>
      </trkpt>
      <trkpt lat="46.25891" lon="-0.87204">
        <ele>8</ele>
        <time>2015-12-14T08:40:07Z</time>
      </trkpt>
      <trkpt lat="46.25885" lon="-0.87178">
        <ele>8</ele>
        <time>2015-12-14T08:40:21Z</time>
      </trkpt>
      <trkpt lat="46.25878" lon="-0.87153">
        <ele>8</ele>
        <time>2015-12-14T08:40:35Z</time>
      </trkpt>
      <trkpt lat="46.25869" lon="-0.87129">
        <ele>8.3</ele>
        <time>2015-12-14T08:40:50Z</time>
      </trkpt>
      <trkpt lat="46.25861" lon="-0.87104">
        <ele>8.7</ele>
        <time>2015-12-14T08:41:03Z</time>
      </trkpt>
      <trkpt lat="46.25851" lon="-0.87082">
        <ele>8</ele>
        <time>2015-12-14T08:41:16Z</time>
      </trkpt>
      <trkpt lat="46.25841" lon="-0.8706">
        <ele>8.6</ele>
        <time>2015-12-14T08:41:30Z</time>
      </trkpt>
      <trkpt lat="46.25831" lon="-0.87038">
        <ele>9</ele>
        <time>2015-12-14T08:41:44Z</time>
      </trkpt>
      <trkpt lat="46.25821" lon="-0.87017">
        <ele>9.2</ele>
        <time>2015-12-14T08:41:58Z</time>
      </trkpt>
      <trkpt lat="46.25815" lon="-0.86997">
        <ele>9.7</ele>
        <time>2015-12-14T08:42:09Z</time>
      </trkpt>
      <trkpt lat="46.25808" lon="-0.86971">
        <ele>10</ele>
        <time>2015-12-14T08:42:24Z</time>
      </trkpt>
      <trkpt lat="46.25803" lon="-0.86945">
        <ele>10</ele>
        <time>2015-12-14T08:42:38Z</time>
      </trkpt>
      <trkpt lat="46.25801" lon="-0.86935">
        <ele>10</ele>
        <time>2015-12-14T08:42:43Z</time>
      </trkpt>
      <trkpt lat="46.25799" lon="-0.86922">
        <ele>10</ele>
        <time>2015-12-14T08:42:50Z</time>
      </trkpt>
      <trkpt lat="46.25797" lon="-0.86895">
        <ele>10.2</ele>
        <time>2015-12-14T08:43:04Z</time>
      </trkpt>
      <trkpt lat="46.25795" lon="-0.86869">
        <ele>10.4</ele>
        <time>2015-12-14T08:43:18Z</time>
      </trkpt>
      <trkpt lat="46.25796" lon="-0.86842">
        <ele>10.8</ele>
        <time>2015-12-14T08:43:32Z</time>
      </trkpt>
      <trkpt lat="46.25796" lon="-0.86816">
        <ele>11</ele>
        <time>2015-12-14T08:43:45Z</time>
      </trkpt>
      <trkpt lat="46.25794" lon="-0.8679">
        <ele>11</ele>
        <time>2015-12-14T08:43:57Z</time>
      </trkpt>
      <trkpt lat="46.25793" lon="-0.86764">
        <ele>11</ele>
        <time>2015-12-14T08:44:10Z</time>
      </trkpt>
      <trkpt lat="46.2579" lon="-0.86738">
        <ele>11</ele>
        <time>2015-12-14T08:44:23Z</time>
      </trkpt>
      <trkpt lat="46.25787" lon="-0.86712">
        <ele>11</ele>
        <time>2015-12-14T08:44:36Z</time>
      </trkpt>
      <trkpt lat="46.25784" lon="-0.86686">
        <ele>11.2</ele>
        <time>2015-12-14T08:44:49Z</time>
      </trkpt>
      <trkpt lat="46.25779" lon="-0.8666">
        <ele>11.9</ele>
        <time>2015-12-14T08:45:02Z</time>
      </trkpt>
      <trkpt lat="46.25765" lon="-0.86652">
        <ele>12</ele>
        <time>2015-12-14T08:45:16Z</time>
      </trkpt>
      <trkpt lat="46.25753" lon="-0.86658">
        <ele>12</ele>
        <time>2015-12-14T08:45:26Z</time>
      </trkpt>
      <trkpt lat="46.25735" lon="-0.86666">
        <ele>11.5</ele>
        <time>2015-12-14T08:45:40Z</time>
      </trkpt>
      <trkpt lat="46.25717" lon="-0.86675">
        <ele>11</ele>
        <time>2015-12-14T08:45:53Z</time>
      </trkpt>
      <trkpt lat="46.25716" lon="-0.86676">
        <ele>11</ele>
        <time>2015-12-14T08:45:54Z</time>
      </trkpt>
      <trkpt lat="46.25699" lon="-0.86687">
        <ele>11</ele>
        <time>2015-12-14T08:46:07Z</time>
      </trkpt>
      <trkpt lat="46.25681" lon="-0.86698">
        <ele>10.9</ele>
        <time>2015-12-14T08:46:21Z</time>
      </trkpt>
      <trkpt lat="46.25664" lon="-0.86707">
        <ele>10.5</ele>
        <time>2015-12-14T08:46:34Z</time>
      </trkpt>
      <trkpt lat="46.25646" lon="-0.86713">
        <ele>10.1</ele>
        <time>2015-12-14T08:46:48Z</time>
      </trkpt>
      <trkpt lat="46.25628" lon="-0.86722">
        <ele>10</ele>
        <time>2015-12-14T08:47:01Z</time>
      </trkpt>
      <trkpt lat="46.25619" lon="-0.86725">
        <ele>9.9</ele>
        <time>2015-12-14T08:47:08Z</time>
      </trkpt>
      <trkpt lat="46.25614" lon="-0.86729">
        <ele>9.8</ele>
        <time>2015-12-14T08:47:12Z</time>
      </trkpt>
      <trkpt lat="46.25598" lon="-0.8674">
        <ele>9.2</ele>
        <time>2015-12-14T08:47:26Z</time>
      </trkpt>
      <trkpt lat="46.2558" lon="-0.86751">
        <ele>9</ele>
        <time>2015-12-14T08:47:40Z</time>
      </trkpt>
      <trkpt lat="46.25563" lon="-0.86761">
        <ele>9</ele>
        <time>2015-12-14T08:47:53Z</time>
      </trkpt>
      <trkpt lat="46.25551" lon="-0.86769">
        <ele>9</ele>
        <time>2015-12-14T08:48:02Z</time>
      </trkpt>
      <trkpt lat="46.25545" lon="-0.86774">
        <ele>9</ele>
        <time>2015-12-14T08:48:07Z</time>
      </trkpt>
      <trkpt lat="46.25527" lon="-0.86785">
        <ele>8.7</ele>
        <time>2015-12-14T08:48:19Z</time>
      </trkpt>
      <trkpt lat="46.2551" lon="-0.86798">
        <ele>8.6</ele>
        <time>2015-12-14T08:48:32Z</time>
      </trkpt>
      <trkpt lat="46.25494" lon="-0.86813">
        <ele>8.6</ele>
        <time>2015-12-14T08:48:45Z</time>
      </trkpt>
      <trkpt lat="46.25479" lon="-0.8683">
        <ele>8.7</ele>
        <time>2015-12-14T08:49:00Z</time>
      </trkpt>
      <trkpt lat="46.25464" lon="-0.86848">
        <ele>9</ele>
        <time>2015-12-14T08:49:14Z</time>
      </trkpt>
      <trkpt lat="46.25449" lon="-0.86864">
        <ele>9.1</ele>
        <time>2015-12-14T08:49:27Z</time>
      </trkpt>
      <trkpt lat="46.25433" lon="-0.86879">
        <ele>10.1</ele>
        <time>2015-12-14T08:49:40Z</time>
      </trkpt>
      <trkpt lat="46.25418" lon="-0.86869">
        <ele>10.3</ele>
        <time>2015-12-14T08:49:53Z</time>
      </trkpt>
      <trkpt lat="46.25408" lon="-0.86844">
        <ele>10</ele>
        <time>2015-12-14T08:50:07Z</time>
      </trkpt>
      <trkpt lat="46.25399" lon="-0.8682">
        <ele>9.8</ele>
        <time>2015-12-14T08:50:20Z</time>
      </trkpt>
      <trkpt lat="46.25389" lon="-0.86796">
        <ele>9.7</ele>
        <time>2015-12-14T08:50:34Z</time>
      </trkpt>
      <trkpt lat="46.25372" lon="-0.86785">
        <ele>9.7</ele>
        <time>2015-12-14T08:50:47Z</time>
      </trkpt>
      <trkpt lat="46.25359" lon="-0.86768">
        <ele>9.7</ele>
        <time>2015-12-14T08:51:00Z</time>
      </trkpt>
      <trkpt lat="46.25349" lon="-0.86745">
        <ele>9.4</ele>
        <time>2015-12-14T08:51:13Z</time>
      </trkpt>
      <trkpt lat="46.25339" lon="-0.86723">
        <ele>9.8</ele>
        <time>2015-12-14T08:51:25Z</time>
      </trkpt>
      <trkpt lat="46.2533" lon="-0.867">
        <ele>10</ele>
        <time>2015-12-14T08:51:37Z</time>
      </trkpt>
      <trkpt lat="46.25321" lon="-0.86677">
        <ele>10</ele>
        <time>2015-12-14T08:51:49Z</time>
      </trkpt>
      <trkpt lat="46.25311" lon="-0.86655">
        <ele>10</ele>
        <time>2015-12-14T08:52:01Z</time>
      </trkpt>
      <trkpt lat="46.25294" lon="-0.86649">
        <ele>10</ele>
        <time>2015-12-14T08:52:14Z</time>
      </trkpt>
      <trkpt lat="46.25276" lon="-0.86658">
        <ele>10.1</ele>
        <time>2015-12-14T08:52:28Z</time>
      </trkpt>
      <trkpt lat="46.25258" lon="-0.86667">
        <ele>10.7</ele>
        <time>2015-12-14T08:52:41Z</time>
      </trkpt>
      <trkpt lat="46.25241" lon="-0.86675">
        <ele>11.3</ele>
        <time>2015-12-14T08:52:54Z</time>
      </trkpt>
      <trkpt lat="46.25223" lon="-0.86683">
        <ele>12</ele>
        <time>2015-12-14T08:53:07Z</time>
      </trkpt>
      <trkpt lat="46.25216" lon="-0.86681">
        <ele>12.2</ele>
        <time>2015-12-14T08:53:12Z</time>
      </trkpt>
      <trkpt lat="46.25214" lon="-0.8667">
        <ele>12.3</ele>
        <time>2015-12-14T08:53:18Z</time>
      </trkpt>
      <trkpt lat="46.2521" lon="-0.86643">
        <ele>12.4</ele>
        <time>2015-12-14T08:53:30Z</time>
      </trkpt>
      <trkpt lat="46.25207" lon="-0.86617">
        <ele>11.8</ele>
        <time>2015-12-14T08:53:42Z</time>
      </trkpt>
      <trkpt lat="46.25202" lon="-0.86591">
        <ele>11.7</ele>
        <time>2015-12-14T08:53:54Z</time>
      </trkpt>
      <trkpt lat="46.25197" lon="-0.86565">
        <ele>11.9</ele>
        <time>2015-12-14T08:54:06Z</time>
      </trkpt>
      <trkpt lat="46.25193" lon="-0.86538">
        <ele>12</ele>
        <time>2015-12-14T08:54:19Z</time>
      </trkpt>
      <trkpt lat="46.25189" lon="-0.86512">
        <ele>12.1</ele>
        <time>2015-12-14T08:54:31Z</time>
      </trkpt>
      <trkpt lat="46.25185" lon="-0.86485">
        <ele>12.3</ele>
        <time>2015-12-14T08:54:44Z</time>
      </trkpt>
      <trkpt lat="46.25182" lon="-0.8646">
        <ele>12.4</ele>
        <time>2015-12-14T08:54:56Z</time>
      </trkpt>
      <trkpt lat="46.25178" lon="-0.86433">
        <ele>12.6</ele>
        <time>2015-12-14T08:55:09Z</time>
      </trkpt>
      <trkpt lat="46.25174" lon="-0.86407">
        <ele>12.5</ele>
        <time>2015-12-14T08:55:21Z</time>
      </trkpt>
      <trkpt lat="46.2517" lon="-0.86381">
        <ele>12</ele>
        <time>2015-12-14T08:55:33Z</time>
      </trkpt>
      <trkpt lat="46.25165" lon="-0.86354">
        <ele>12.1</ele>
        <time>2015-12-14T08:55:46Z</time>
      </trkpt>
      <trkpt lat="46.25162" lon="-0.86328">
        <ele>12.2</ele>
        <time>2015-12-14T08:55:59Z</time>
      </trkpt>
      <trkpt lat="46.25159" lon="-0.86301">
        <ele>12.4</ele>
        <time>2015-12-14T08:56:12Z</time>
      </trkpt>
      <trkpt lat="46.25154" lon="-0.86275">
        <ele>13</ele>
        <time>2015-12-14T08:56:24Z</time>
      </trkpt>
      <trkpt lat="46.2515" lon="-0.8625">
        <ele>13</ele>
        <time>2015-12-14T08:56:36Z</time>
      </trkpt>
      <trkpt lat="46.25147" lon="-0.86224">
        <ele>13.7</ele>
        <time>2015-12-14T08:56:48Z</time>
      </trkpt>
      <trkpt lat="46.25142" lon="-0.86198">
        <ele>13.9</ele>
        <time>2015-12-14T08:57:01Z</time>
      </trkpt>
      <trkpt lat="46.25138" lon="-0.86171">
        <ele>14</ele>
        <time>2015-12-14T08:57:14Z</time>
      </trkpt>
      <trkpt lat="46.25134" lon="-0.86146">
        <ele>14.2</ele>
        <time>2015-12-14T08:57:26Z</time>
      </trkpt>
      <trkpt lat="46.2514" lon="-0.86122">
        <ele>14</ele>
        <time>2015-12-14T08:57:39Z</time>
      </trkpt>
      <trkpt lat="46.25157" lon="-0.86114">
        <ele>14</ele>
        <time>2015-12-14T08:57:50Z</time>
      </trkpt>
      <trkpt lat="46.25175" lon="-0.86106">
        <ele>13.7</ele>
        <time>2015-12-14T08:58:02Z</time>
      </trkpt>
      <trkpt lat="46.25193" lon="-0.86097">
        <ele>13.1</ele>
        <time>2015-12-14T08:58:13Z</time>
      </trkpt>
      <trkpt lat="46.25211" lon="-0.8609">
        <ele>12.4</ele>
        <time>2015-12-14T08:58:25Z</time>
      </trkpt>
      <trkpt lat="46.2523" lon="-0.86081">
        <ele>11.8</ele>
        <time>2015-12-14T08:58:37Z</time>
      </trkpt>
      <trkpt lat="46.25248" lon="-0.86073">
        <ele>11.4</ele>
        <time>2015-12-14T08:58:49Z</time>
      </trkpt>
      <trkpt lat="46.25265" lon="-0.86062">
        <ele>11.4</ele>
        <time>2015-12-14T08:59:02Z</time>
      </trkpt>
      <trkpt lat="46.25272" lon="-0.86047">
        <ele>11.2</ele>
        <time>2015-12-14T08:59:15Z</time>
      </trkpt>
      <trkpt lat="46.25269" lon="-0.86044">
        <ele>11.3</ele>
        <time>2015-12-14T09:01:50Z</time>
      </trkpt>
      <trkpt lat="46.25267" lon="-0.86042">
        <ele>11.4</ele>
        <time>2015-12-14T09:06:11Z</time>
      </trkpt>
      <trkpt lat="46.25253" lon="-0.86026">
        <ele>11.9</ele>
        <time>2015-12-14T09:06:37Z</time>
      </trkpt>
      <trkpt lat="46.25236" lon="-0.86017">
        <ele>12</ele>
        <time>2015-12-14T09:06:53Z</time>
      </trkpt>
      <trkpt lat="46.2522" lon="-0.86002">
        <ele>12.1</ele>
        <time>2015-12-14T09:07:09Z</time>
      </trkpt>
      <trkpt lat="46.25206" lon="-0.85986">
        <ele>12.6</ele>
        <time>2015-12-14T09:07:23Z</time>
      </trkpt>
      <trkpt lat="46.25205" lon="-0.85985">
        <ele>12.6</ele>
        <time>2015-12-14T09:07:24Z</time>
      </trkpt>
      <trkpt lat="46.25191" lon="-0.85968">
        <ele>13.1</ele>
        <time>2015-12-14T09:07:37Z</time>
      </trkpt>
      <trkpt lat="46.25175" lon="-0.85952">
        <ele>13.7</ele>
        <time>2015-12-14T09:07:50Z</time>
      </trkpt>
      <trkpt lat="46.25162" lon="-0.85935">
        <ele>14.2</ele>
        <time>2015-12-14T09:08:04Z</time>
      </trkpt>
      <trkpt lat="46.25149" lon="-0.85914">
        <ele>15.3</ele>
        <time>2015-12-14T09:08:18Z</time>
      </trkpt>
      <trkpt lat="46.25135" lon="-0.85899">
        <ele>16.1</ele>
        <time>2015-12-14T09:08:32Z</time>
      </trkpt>
      <trkpt lat="46.2512" lon="-0.85883">
        <ele>16.7</ele>
        <time>2015-12-14T09:08:46Z</time>
      </trkpt>
      <trkpt lat="46.25107" lon="-0.85869">
        <ele>17</ele>
        <time>2015-12-14T09:08:58Z</time>
      </trkpt>
      <trkpt lat="46.25101" lon="-0.85862">
        <ele>17</ele>
        <time>2015-12-14T09:09:03Z</time>
      </trkpt>
      <trkpt lat="46.25086" lon="-0.85846">
        <ele>17.5</ele>
        <time>2015-12-14T09:09:15Z</time>
      </trkpt>
      <trkpt lat="46.25071" lon="-0.8583">
        <ele>18</ele>
        <time>2015-12-14T09:09:28Z</time>
      </trkpt>
      <trkpt lat="46.25054" lon="-0.85819">
        <ele>18</ele>
        <time>2015-12-14T09:09:42Z</time>
      </trkpt>
      <trkpt lat="46.25037" lon="-0.85808">
        <ele>18.7</ele>
        <time>2015-12-14T09:09:56Z</time>
      </trkpt>
      <trkpt lat="46.25021" lon="-0.85797">
        <ele>19</ele>
        <time>2015-12-14T09:10:09Z</time>
      </trkpt>
      <trkpt lat="46.25009" lon="-0.85782">
        <ele>19</ele>
        <time>2015-12-14T09:10:20Z</time>
      </trkpt>
      <trkpt lat="46.24993" lon="-0.85767">
        <ele>19</ele>
        <time>2015-12-14T09:10:33Z</time>
      </trkpt>
      <trkpt lat="46.24976" lon="-0.85757">
        <ele>19</ele>
        <time>2015-12-14T09:10:45Z</time>
      </trkpt>
      <trkpt lat="46.2496" lon="-0.85744">
        <ele>19.4</ele>
        <time>2015-12-14T09:10:56Z</time>
      </trkpt>
      <trkpt lat="46.24942" lon="-0.85733">
        <ele>19.4</ele>
        <time>2015-12-14T09:11:09Z</time>
      </trkpt>
      <trkpt lat="46.24927" lon="-0.85723">
        <ele>19.6</ele>
        <time>2015-12-14T09:11:20Z</time>
      </trkpt>
      <trkpt lat="46.24912" lon="-0.85711">
        <ele>19.5</ele>
        <time>2015-12-14T09:11:32Z</time>
      </trkpt>
      <trkpt lat="46.24894" lon="-0.85699">
        <ele>19</ele>
        <time>2015-12-14T09:11:45Z</time>
      </trkpt>
      <trkpt lat="46.24877" lon="-0.85685">
        <ele>18.4</ele>
        <time>2015-12-14T09:11:58Z</time>
      </trkpt>
      <trkpt lat="46.2486" lon="-0.85674">
        <ele>18</ele>
        <time>2015-12-14T09:12:12Z</time>
      </trkpt>
      <trkpt lat="46.24842" lon="-0.85662">
        <ele>18</ele>
        <time>2015-12-14T09:12:26Z</time>
      </trkpt>
      <trkpt lat="46.24826" lon="-0.85652">
        <ele>18</ele>
        <time>2015-12-14T09:12:38Z</time>
      </trkpt>
      <trkpt lat="46.24809" lon="-0.85641">
        <ele>18</ele>
        <time>2015-12-14T09:12:49Z</time>
      </trkpt>
      <trkpt lat="46.24794" lon="-0.85628">
        <ele>17.8</ele>
        <time>2015-12-14T09:13:00Z</time>
      </trkpt>
      <trkpt lat="46.24778" lon="-0.85613">
        <ele>18</ele>
        <time>2015-12-14T09:13:12Z</time>
      </trkpt>
      <trkpt lat="46.24762" lon="-0.85598">
        <ele>17.8</ele>
        <time>2015-12-14T09:13:25Z</time>
      </trkpt>
      <trkpt lat="46.24748" lon="-0.85581">
        <ele>18</ele>
        <time>2015-12-14T09:13:36Z</time>
      </trkpt>
      <trkpt lat="46.24734" lon="-0.85563">
        <ele>18</ele>
        <time>2015-12-14T09:13:47Z</time>
      </trkpt>
      <trkpt lat="46.2472" lon="-0.85547">
        <ele>18.1</ele>
        <time>2015-12-14T09:13:59Z</time>
      </trkpt>
      <trkpt lat="46.24701" lon="-0.85555">
        <ele>18.8</ele>
        <time>2015-12-14T09:14:12Z</time>
      </trkpt>
      <trkpt lat="46.24685" lon="-0.85567">
        <ele>19.1</ele>
        <time>2015-12-14T09:14:24Z</time>
      </trkpt>
      <trkpt lat="46.24667" lon="-0.85576">
        <ele>19.7</ele>
        <time>2015-12-14T09:14:38Z</time>
      </trkpt>
      <trkpt lat="46.2465" lon="-0.8559">
        <ele>20.1</ele>
        <time>2015-12-14T09:14:51Z</time>
      </trkpt>
      <trkpt lat="46.24633" lon="-0.85602">
        <ele>20.7</ele>
        <time>2015-12-14T09:15:05Z</time>
      </trkpt>
      <trkpt lat="46.2462" lon="-0.85621">
        <ele>21</ele>
        <time>2015-12-14T09:15:17Z</time>
      </trkpt>
      <trkpt lat="46.24606" lon="-0.85636">
        <ele>21</ele>
        <time>2015-12-14T09:15:29Z</time>
      </trkpt>
      <trkpt lat="46.24605" lon="-0.85636">
        <ele>21</ele>
        <time>2015-12-14T09:15:30Z</time>
      </trkpt>
      <trkpt lat="46.24587" lon="-0.85628">
        <ele>21</ele>
        <time>2015-12-14T09:15:43Z</time>
      </trkpt>
      <trkpt lat="46.24568" lon="-0.85627">
        <ele>21</ele>
        <time>2015-12-14T09:15:56Z</time>
      </trkpt>
      <trkpt lat="46.24549" lon="-0.85632">
        <ele>20.9</ele>
        <time>2015-12-14T09:16:09Z</time>
      </trkpt>
      <trkpt lat="46.2453" lon="-0.85638">
        <ele>21</ele>
        <time>2015-12-14T09:16:22Z</time>
      </trkpt>
      <trkpt lat="46.24512" lon="-0.85642">
        <ele>21</ele>
        <time>2015-12-14T09:16:35Z</time>
      </trkpt>
      <trkpt lat="46.24493" lon="-0.85645">
        <ele>21</ele>
        <time>2015-12-14T09:16:47Z</time>
      </trkpt>
      <trkpt lat="46.24475" lon="-0.85645">
        <ele>21</ele>
        <time>2015-12-14T09:17:00Z</time>
      </trkpt>
      <trkpt lat="46.24456" lon="-0.85646">
        <ele>21</ele>
        <time>2015-12-14T09:17:13Z</time>
      </trkpt>
      <trkpt lat="46.24437" lon="-0.85643">
        <ele>21.3</ele>
        <time>2015-12-14T09:17:26Z</time>
      </trkpt>
      <trkpt lat="46.24418" lon="-0.85643">
        <ele>22</ele>
        <time>2015-12-14T09:17:39Z</time>
      </trkpt>
      <trkpt lat="46.244" lon="-0.85646">
        <ele>22.5</ele>
        <time>2015-12-14T09:17:52Z</time>
      </trkpt>
      <trkpt lat="46.24381" lon="-0.8565">
        <ele>22.7</ele>
        <time>2015-12-14T09:18:04Z</time>
      </trkpt>
      <trkpt lat="46.24362" lon="-0.85652">
        <ele>23</ele>
        <time>2015-12-14T09:18:17Z</time>
      </trkpt>
      <trkpt lat="46.24343" lon="-0.85655">
        <ele>23.6</ele>
        <time>2015-12-14T09:18:29Z</time>
      </trkpt>
      <trkpt lat="46.24324" lon="-0.85654">
        <ele>24</ele>
        <time>2015-12-14T09:18:42Z</time>
      </trkpt>
      <trkpt lat="46.24305" lon="-0.85653">
        <ele>24</ele>
        <time>2015-12-14T09:18:55Z</time>
      </trkpt>
      <trkpt lat="46.24286" lon="-0.85655">
        <ele>24.7</ele>
        <time>2015-12-14T09:19:08Z</time>
      </trkpt>
      <trkpt lat="46.24268" lon="-0.85661">
        <ele>25.4</ele>
        <time>2015-12-14T09:19:20Z</time>
      </trkpt>
      <trkpt lat="46.2425" lon="-0.85667">
        <ele>26</ele>
        <time>2015-12-14T09:19:33Z</time>
      </trkpt>
      <trkpt lat="46.24232" lon="-0.85672">
        <ele>26.7</ele>
        <time>2015-12-14T09:19:46Z</time>
      </trkpt>
      <trkpt lat="46.24214" lon="-0.85679">
        <ele>27.4</ele>
        <time>2015-12-14T09:19:57Z</time>
      </trkpt>
      <trkpt lat="46.24196" lon="-0.85684">
        <ele>28.5</ele>
        <time>2015-12-14T09:20:09Z</time>
      </trkpt>
      <trkpt lat="46.24178" lon="-0.8569">
        <ele>29.5</ele>
        <time>2015-12-14T09:20:22Z</time>
      </trkpt>
      <trkpt lat="46.24161" lon="-0.85696">
        <ele>30.5</ele>
        <time>2015-12-14T09:20:34Z</time>
      </trkpt>
      <trkpt lat="46.24142" lon="-0.85699">
        <ele>32</ele>
        <time>2015-12-14T09:20:47Z</time>
      </trkpt>
      <trkpt lat="46.24123" lon="-0.85702">
        <ele>33.3</ele>
        <time>2015-12-14T09:20:59Z</time>
      </trkpt>
      <trkpt lat="46.24104" lon="-0.85704">
        <ele>34.3</ele>
        <time>2015-12-14T09:21:11Z</time>
      </trkpt>
      <trkpt lat="46.24085" lon="-0.85702">
        <ele>34.9</ele>
        <time>2015-12-14T09:21:23Z</time>
      </trkpt>
      <trkpt lat="46.24067" lon="-0.85701">
        <ele>35.6</ele>
        <time>2015-12-14T09:21:36Z</time>
      </trkpt>
      <trkpt lat="46.24059" lon="-0.85716">
        <ele>35.9</ele>
        <time>2015-12-14T09:23:00Z</time>
      </trkpt>
      <trkpt lat="46.24058" lon="-0.85731">
        <ele>35.9</ele>
        <time>2015-12-14T09:23:22Z</time>
      </trkpt>
      <trkpt lat="46.24058" lon="-0.85737">
        <ele>35.9</ele>
        <time>2015-12-14T09:23:26Z</time>
      </trkpt>
      <trkpt lat="46.24057" lon="-0.85764">
        <ele>36</ele>
        <time>2015-12-14T09:23:41Z</time>
      </trkpt>
      <trkpt lat="46.24054" lon="-0.85791">
        <ele>36.1</ele>
        <time>2015-12-14T09:23:56Z</time>
      </trkpt>
      <trkpt lat="46.24053" lon="-0.85817">
        <ele>36.5</ele>
        <time>2015-12-14T09:24:10Z</time>
      </trkpt>
      <trkpt lat="46.2405" lon="-0.85844">
        <ele>37.1</ele>
        <time>2015-12-14T09:24:24Z</time>
      </trkpt>
      <trkpt lat="46.24048" lon="-0.85856">
        <ele>37.2</ele>
        <time>2015-12-14T09:24:30Z</time>
      </trkpt>
      <trkpt lat="46.24045" lon="-0.85882">
        <ele>37.4</ele>
        <time>2015-12-14T09:24:43Z</time>
      </trkpt>
      <trkpt lat="46.24042" lon="-0.85909">
        <ele>37.5</ele>
        <time>2015-12-14T09:24:56Z</time>
      </trkpt>
      <trkpt lat="46.24039" lon="-0.85935">
        <ele>37.6</ele>
        <time>2015-12-14T09:25:09Z</time>
      </trkpt>
      <trkpt lat="46.24036" lon="-0.85962">
        <ele>37.7</ele>
        <time>2015-12-14T09:25:22Z</time>
      </trkpt>
      <trkpt lat="46.24033" lon="-0.85988">
        <ele>37.8</ele>
        <time>2015-12-14T09:25:35Z</time>
      </trkpt>
      <trkpt lat="46.2403" lon="-0.86014">
        <ele>37.9</ele>
        <time>2015-12-14T09:25:48Z</time>
      </trkpt>
      <trkpt lat="46.24027" lon="-0.86041">
        <ele>37.5</ele>
        <time>2015-12-14T09:26:01Z</time>
      </trkpt>
      <trkpt lat="46.24023" lon="-0.86068">
        <ele>37.5</ele>
        <time>2015-12-14T09:26:14Z</time>
      </trkpt>
      <trkpt lat="46.24021" lon="-0.86095">
        <ele>38</ele>
        <time>2015-12-14T09:26:27Z</time>
      </trkpt>
      <trkpt lat="46.24017" lon="-0.8612">
        <ele>37.8</ele>
        <time>2015-12-14T09:26:40Z</time>
      </trkpt>
      <trkpt lat="46.24012" lon="-0.86147">
        <ele>37.6</ele>
        <time>2015-12-14T09:26:53Z</time>
      </trkpt>
      <trkpt lat="46.24005" lon="-0.86173">
        <ele>37.6</ele>
        <time>2015-12-14T09:27:06Z</time>
      </trkpt>
      <trkpt lat="46.23998" lon="-0.86199">
        <ele>37</ele>
        <time>2015-12-14T09:27:19Z</time>
      </trkpt>
      <trkpt lat="46.23994" lon="-0.86224">
        <ele>37</ele>
        <time>2015-12-14T09:27:31Z</time>
      </trkpt>
      <trkpt lat="46.23993" lon="-0.86251">
        <ele>37</ele>
        <time>2015-12-14T09:27:44Z</time>
      </trkpt>
      <trkpt lat="46.23992" lon="-0.86279">
        <ele>37</ele>
        <time>2015-12-14T09:27:57Z</time>
      </trkpt>
      <trkpt lat="46.23992" lon="-0.86307">
        <ele>36.7</ele>
        <time>2015-12-14T09:28:10Z</time>
      </trkpt>
      <trkpt lat="46.23993" lon="-0.86334">
        <ele>36</ele>
        <time>2015-12-14T09:28:23Z</time>
      </trkpt>
      <trkpt lat="46.23992" lon="-0.86361">
        <ele>36</ele>
        <time>2015-12-14T09:28:36Z</time>
      </trkpt>
      <trkpt lat="46.23993" lon="-0.86389">
        <ele>36</ele>
        <time>2015-12-14T09:28:49Z</time>
      </trkpt>
      <trkpt lat="46.23993" lon="-0.86417">
        <ele>36</ele>
        <time>2015-12-14T09:29:02Z</time>
      </trkpt>
      <trkpt lat="46.23994" lon="-0.86443">
        <ele>36</ele>
        <time>2015-12-14T09:29:14Z</time>
      </trkpt>
      <trkpt lat="46.23995" lon="-0.86471">
        <ele>35.8</ele>
        <time>2015-12-14T09:29:27Z</time>
      </trkpt>
      <trkpt lat="46.23997" lon="-0.86499">
        <ele>35.9</ele>
        <time>2015-12-14T09:29:40Z</time>
      </trkpt>
      <trkpt lat="46.23999" lon="-0.86524">
        <ele>36</ele>
        <time>2015-12-14T09:29:52Z</time>
      </trkpt>
      <trkpt lat="46.24002" lon="-0.8655">
        <ele>35.2</ele>
        <time>2015-12-14T09:30:04Z</time>
      </trkpt>
      <trkpt lat="46.24004" lon="-0.86578">
        <ele>35.2</ele>
        <time>2015-12-14T09:30:17Z</time>
      </trkpt>
      <trkpt lat="46.24008" lon="-0.86604">
        <ele>35.1</ele>
        <time>2015-12-14T09:30:29Z</time>
      </trkpt>
      <trkpt lat="46.24011" lon="-0.86631">
        <ele>35</ele>
        <time>2015-12-14T09:30:41Z</time>
      </trkpt>
      <trkpt lat="46.24015" lon="-0.86658">
        <ele>34.3</ele>
        <time>2015-12-14T09:30:54Z</time>
      </trkpt>
      <trkpt lat="46.2402" lon="-0.86683">
        <ele>34</ele>
        <time>2015-12-14T09:31:06Z</time>
      </trkpt>
      <trkpt lat="46.24024" lon="-0.8671">
        <ele>33.5</ele>
        <time>2015-12-14T09:31:18Z</time>
      </trkpt>
      <trkpt lat="46.24028" lon="-0.86737">
        <ele>33</ele>
        <time>2015-12-14T09:31:30Z</time>
      </trkpt>
      <trkpt lat="46.24031" lon="-0.86763">
        <ele>32.9</ele>
        <time>2015-12-14T09:31:42Z</time>
      </trkpt>
      <trkpt lat="46.24034" lon="-0.8679">
        <ele>32.8</ele>
        <time>2015-12-14T09:31:54Z</time>
      </trkpt>
      <trkpt lat="46.24035" lon="-0.86816">
        <ele>32.7</ele>
        <time>2015-12-14T09:32:06Z</time>
      </trkpt>
      <trkpt lat="46.24037" lon="-0.86843">
        <ele>32.6</ele>
        <time>2015-12-14T09:32:18Z</time>
      </trkpt>
      <trkpt lat="46.24038" lon="-0.86869">
        <ele>32.1</ele>
        <time>2015-12-14T09:32:30Z</time>
      </trkpt>
      <trkpt lat="46.24038" lon="-0.86895">
        <ele>31.6</ele>
        <time>2015-12-14T09:32:42Z</time>
      </trkpt>
      <trkpt lat="46.24038" lon="-0.86923">
        <ele>31.6</ele>
        <time>2015-12-14T09:32:55Z</time>
      </trkpt>
      <trkpt lat="46.24037" lon="-0.86949">
        <ele>31.7</ele>
        <time>2015-12-14T09:33:08Z</time>
      </trkpt>
      <trkpt lat="46.24037" lon="-0.86975">
        <ele>31.6</ele>
        <time>2015-12-14T09:33:20Z</time>
      </trkpt>
      <trkpt lat="46.24036" lon="-0.87002">
        <ele>30.7</ele>
        <time>2015-12-14T09:33:32Z</time>
      </trkpt>
      <trkpt lat="46.24034" lon="-0.87029">
        <ele>30.8</ele>
        <time>2015-12-14T09:33:44Z</time>
      </trkpt>
      <trkpt lat="46.24031" lon="-0.87056">
        <ele>30.9</ele>
        <time>2015-12-14T09:33:56Z</time>
      </trkpt>
      <trkpt lat="46.24029" lon="-0.87084">
        <ele>30.9</ele>
        <time>2015-12-14T09:34:09Z</time>
      </trkpt>
      <trkpt lat="46.24027" lon="-0.87109">
        <ele>30.1</ele>
        <time>2015-12-14T09:34:21Z</time>
      </trkpt>
      <trkpt lat="46.24024" lon="-0.87136">
        <ele>30.1</ele>
        <time>2015-12-14T09:34:34Z</time>
      </trkpt>
      <trkpt lat="46.24023" lon="-0.87164">
        <ele>30.2</ele>
        <time>2015-12-14T09:34:47Z</time>
      </trkpt>
      <trkpt lat="46.24024" lon="-0.8717">
        <ele>30.1</ele>
        <time>2015-12-14T09:34:50Z</time>
      </trkpt>
      <trkpt lat="46.24023" lon="-0.87186">
        <ele>30.2</ele>
        <time>2015-12-14T09:34:57Z</time>
      </trkpt>
      <trkpt lat="46.24021" lon="-0.87213">
        <ele>29.8</ele>
        <time>2015-12-14T09:35:09Z</time>
      </trkpt>
      <trkpt lat="46.24018" lon="-0.8724">
        <ele>29.7</ele>
        <time>2015-12-14T09:35:20Z</time>
      </trkpt>
      <trkpt lat="46.24017" lon="-0.87266">
        <ele>29.8</ele>
        <time>2015-12-14T09:35:32Z</time>
      </trkpt>
      <trkpt lat="46.24015" lon="-0.87292">
        <ele>29.7</ele>
        <time>2015-12-14T09:35:44Z</time>
      </trkpt>
      <trkpt lat="46.24014" lon="-0.8732">
        <ele>29.5</ele>
        <time>2015-12-14T09:35:57Z</time>
      </trkpt>
      <trkpt lat="46.24013" lon="-0.87348">
        <ele>29.5</ele>
        <time>2015-12-14T09:36:09Z</time>
      </trkpt>
      <trkpt lat="46.24011" lon="-0.87375">
        <ele>29.6</ele>
        <time>2015-12-14T09:36:21Z</time>
      </trkpt>
      <trkpt lat="46.2401" lon="-0.87403">
        <ele>29.7</ele>
        <time>2015-12-14T09:36:34Z</time>
      </trkpt>
      <trkpt lat="46.24008" lon="-0.87429">
        <ele>29.7</ele>
        <time>2015-12-14T09:36:45Z</time>
      </trkpt>
      <trkpt lat="46.24006" lon="-0.87455">
        <ele>29.8</ele>
        <time>2015-12-14T09:36:56Z</time>
      </trkpt>
      <trkpt lat="46.24005" lon="-0.87482">
        <ele>29.8</ele>
        <time>2015-12-14T09:37:07Z</time>
      </trkpt>
      <trkpt lat="46.24003" lon="-0.87508">
        <ele>29.9</ele>
        <time>2015-12-14T09:37:19Z</time>
      </trkpt>
      <trkpt lat="46.24001" lon="-0.87535">
        <ele>30</ele>
        <time>2015-12-14T09:37:31Z</time>
      </trkpt>
      <trkpt lat="46.23999" lon="-0.87562">
        <ele>30</ele>
        <time>2015-12-14T09:37:43Z</time>
      </trkpt>
      <trkpt lat="46.23998" lon="-0.87589">
        <ele>30.1</ele>
        <time>2015-12-14T09:37:55Z</time>
      </trkpt>
      <trkpt lat="46.23997" lon="-0.87616">
        <ele>30.3</ele>
        <time>2015-12-14T09:38:07Z</time>
      </trkpt>
      <trkpt lat="46.23995" lon="-0.87643">
        <ele>31</ele>
        <time>2015-12-14T09:38:19Z</time>
      </trkpt>
      <trkpt lat="46.23993" lon="-0.87671">
        <ele>31</ele>
        <time>2015-12-14T09:38:31Z</time>
      </trkpt>
      <trkpt lat="46.23991" lon="-0.87697">
        <ele>31</ele>
        <time>2015-12-14T09:38:43Z</time>
      </trkpt>
      <trkpt lat="46.23988" lon="-0.87723">
        <ele>31</ele>
        <time>2015-12-14T09:38:55Z</time>
      </trkpt>
      <trkpt lat="46.23986" lon="-0.87749">
        <ele>31.5</ele>
        <time>2015-12-14T09:39:07Z</time>
      </trkpt>
      <trkpt lat="46.23983" lon="-0.87776">
        <ele>31.6</ele>
        <time>2015-12-14T09:39:19Z</time>
      </trkpt>
      <trkpt lat="46.23978" lon="-0.87802">
        <ele>31.8</ele>
        <time>2015-12-14T09:39:31Z</time>
      </trkpt>
      <trkpt lat="46.23975" lon="-0.87828">
        <ele>31.9</ele>
        <time>2015-12-14T09:39:43Z</time>
      </trkpt>
      <trkpt lat="46.23971" lon="-0.87854">
        <ele>32</ele>
        <time>2015-12-14T09:39:55Z</time>
      </trkpt>
      <trkpt lat="46.23965" lon="-0.87879">
        <ele>32</ele>
        <time>2015-12-14T09:40:06Z</time>
      </trkpt>
      <trkpt lat="46.23961" lon="-0.87907">
        <ele>32</ele>
        <time>2015-12-14T09:40:17Z</time>
      </trkpt>
      <trkpt lat="46.23956" lon="-0.87933">
        <ele>32.3</ele>
        <time>2015-12-14T09:40:28Z</time>
      </trkpt>
      <trkpt lat="46.23952" lon="-0.87959">
        <ele>32.7</ele>
        <time>2015-12-14T09:40:40Z</time>
      </trkpt>
      <trkpt lat="46.23949" lon="-0.87986">
        <ele>32.8</ele>
        <time>2015-12-14T09:40:52Z</time>
      </trkpt>
      <trkpt lat="46.23944" lon="-0.88011">
        <ele>33</ele>
        <time>2015-12-14T09:41:03Z</time>
      </trkpt>
      <trkpt lat="46.2394" lon="-0.88039">
        <ele>33</ele>
        <time>2015-12-14T09:41:15Z</time>
      </trkpt>
      <trkpt lat="46.23936" lon="-0.88065">
        <ele>33</ele>
        <time>2015-12-14T09:41:27Z</time>
      </trkpt>
      <trkpt lat="46.2393" lon="-0.88091">
        <ele>33</ele>
        <time>2015-12-14T09:41:39Z</time>
      </trkpt>
      <trkpt lat="46.23924" lon="-0.88116">
        <ele>33.1</ele>
        <time>2015-12-14T09:41:51Z</time>
      </trkpt>
      <trkpt lat="46.23917" lon="-0.88136">
        <ele>33.9</ele>
        <time>2015-12-14T09:42:05Z</time>
      </trkpt>
      <trkpt lat="46.23912" lon="-0.88147">
        <ele>34</ele>
        <time>2015-12-14T09:43:52Z</time>
      </trkpt>
      <trkpt lat="46.23907" lon="-0.88152">
        <ele>34</ele>
        <time>2015-12-14T09:46:42Z</time>
      </trkpt>
      <trkpt lat="46.23904" lon="-0.88171">
        <ele>34</ele>
        <time>2015-12-14T09:47:22Z</time>
      </trkpt>
      <trkpt lat="46.23899" lon="-0.88196">
        <ele>34</ele>
        <time>2015-12-14T09:47:37Z</time>
      </trkpt>
      <trkpt lat="46.23894" lon="-0.88223">
        <ele>34</ele>
        <time>2015-12-14T09:47:50Z</time>
      </trkpt>
      <trkpt lat="46.23888" lon="-0.88248">
        <ele>33.1</ele>
        <time>2015-12-14T09:48:03Z</time>
      </trkpt>
      <trkpt lat="46.23882" lon="-0.88273">
        <ele>33.4</ele>
        <time>2015-12-14T09:48:16Z</time>
      </trkpt>
      <trkpt lat="46.23876" lon="-0.88299">
        <ele>33.5</ele>
        <time>2015-12-14T09:48:29Z</time>
      </trkpt>
      <trkpt lat="46.23871" lon="-0.88324">
        <ele>33.4</ele>
        <time>2015-12-14T09:48:41Z</time>
      </trkpt>
      <trkpt lat="46.23865" lon="-0.8835">
        <ele>33.6</ele>
        <time>2015-12-14T09:48:54Z</time>
      </trkpt>
      <trkpt lat="46.23858" lon="-0.88375">
        <ele>33.9</ele>
        <time>2015-12-14T09:49:06Z</time>
      </trkpt>
      <trkpt lat="46.23852" lon="-0.884">
        <ele>33.8</ele>
        <time>2015-12-14T09:49:18Z</time>
      </trkpt>
      <trkpt lat="46.23847" lon="-0.88425">
        <ele>34.2</ele>
        <time>2015-12-14T09:49:30Z</time>
      </trkpt>
      <trkpt lat="46.2384" lon="-0.8845">
        <ele>34.4</ele>
        <time>2015-12-14T09:49:42Z</time>
      </trkpt>
      <trkpt lat="46.23834" lon="-0.88475">
        <ele>33</ele>
        <time>2015-12-14T09:49:55Z</time>
      </trkpt>
      <trkpt lat="46.23826" lon="-0.885">
        <ele>32.5</ele>
        <time>2015-12-14T09:50:08Z</time>
      </trkpt>
      <trkpt lat="46.23818" lon="-0.88524">
        <ele>32.8</ele>
        <time>2015-12-14T09:50:20Z</time>
      </trkpt>
      <trkpt lat="46.23808" lon="-0.88547">
        <ele>32.4</ele>
        <time>2015-12-14T09:50:32Z</time>
      </trkpt>
      <trkpt lat="46.23798" lon="-0.88571">
        <ele>31.9</ele>
        <time>2015-12-14T09:50:44Z</time>
      </trkpt>
      <trkpt lat="46.2379" lon="-0.88595">
        <ele>32.6</ele>
        <time>2015-12-14T09:50:56Z</time>
      </trkpt>
      <trkpt lat="46.23783" lon="-0.8862">
        <ele>32.3</ele>
        <time>2015-12-14T09:51:07Z</time>
      </trkpt>
      <trkpt lat="46.23774" lon="-0.88645">
        <ele>30.7</ele>
        <time>2015-12-14T09:51:19Z</time>
      </trkpt>
      <trkpt lat="46.23767" lon="-0.88671">
        <ele>30.7</ele>
        <time>2015-12-14T09:51:31Z</time>
      </trkpt>
      <trkpt lat="46.23757" lon="-0.88695">
        <ele>30.7</ele>
        <time>2015-12-14T09:51:43Z</time>
      </trkpt>
      <trkpt lat="46.23749" lon="-0.8872">
        <ele>29.9</ele>
        <time>2015-12-14T09:51:55Z</time>
      </trkpt>
      <trkpt lat="46.23742" lon="-0.88744">
        <ele>29.1</ele>
        <time>2015-12-14T09:52:06Z</time>
      </trkpt>
      <trkpt lat="46.23736" lon="-0.88768">
        <ele>29.5</ele>
        <time>2015-12-14T09:52:17Z</time>
      </trkpt>
      <trkpt lat="46.23731" lon="-0.88794">
        <ele>30.1</ele>
        <time>2015-12-14T09:52:29Z</time>
      </trkpt>
      <trkpt lat="46.23726" lon="-0.8882">
        <ele>30.3</ele>
        <time>2015-12-14T09:52:41Z</time>
      </trkpt>
      <trkpt lat="46.23722" lon="-0.88846">
        <ele>29.5</ele>
        <time>2015-12-14T09:52:53Z</time>
      </trkpt>
      <trkpt lat="46.23718" lon="-0.88872">
        <ele>29.1</ele>
        <time>2015-12-14T09:53:06Z</time>
      </trkpt>
      <trkpt lat="46.23713" lon="-0.88898">
        <ele>29</ele>
        <time>2015-12-14T09:53:18Z</time>
      </trkpt>
      <trkpt lat="46.23708" lon="-0.88923">
        <ele>28.9</ele>
        <time>2015-12-14T09:53:29Z</time>
      </trkpt>
      <trkpt lat="46.23703" lon="-0.8895">
        <ele>28.5</ele>
        <time>2015-12-14T09:53:41Z</time>
      </trkpt>
      <trkpt lat="46.23698" lon="-0.88977">
        <ele>28</ele>
        <time>2015-12-14T09:53:53Z</time>
      </trkpt>
      <trkpt lat="46.23693" lon="-0.89003">
        <ele>27.8</ele>
        <time>2015-12-14T09:54:05Z</time>
      </trkpt>
      <trkpt lat="46.23689" lon="-0.89028">
        <ele>26.8</ele>
        <time>2015-12-14T09:54:17Z</time>
      </trkpt>
      <trkpt lat="46.23683" lon="-0.89055">
        <ele>26.6</ele>
        <time>2015-12-14T09:54:29Z</time>
      </trkpt>
      <trkpt lat="46.23678" lon="-0.89081">
        <ele>26.4</ele>
        <time>2015-12-14T09:54:40Z</time>
      </trkpt>
      <trkpt lat="46.23673" lon="-0.89107">
        <ele>26</ele>
        <time>2015-12-14T09:54:54Z</time>
      </trkpt>
      <trkpt lat="46.23673" lon="-0.89108">
        <ele>26</ele>
        <time>2015-12-14T09:54:55Z</time>
      </trkpt>
      <trkpt lat="46.23676" lon="-0.89112">
        <ele>26</ele>
        <time>2015-12-14T09:54:59Z</time>
      </trkpt>
      <trkpt lat="46.23694" lon="-0.89117">
        <ele>26</ele>
        <time>2015-12-14T09:55:12Z</time>
      </trkpt>
      <trkpt lat="46.23713" lon="-0.89117">
        <ele>26.5</ele>
        <time>2015-12-14T09:55:25Z</time>
      </trkpt>
      <trkpt lat="46.23732" lon="-0.89121">
        <ele>26.4</ele>
        <time>2015-12-14T09:55:38Z</time>
      </trkpt>
      <trkpt lat="46.23751" lon="-0.89123">
        <ele>26</ele>
        <time>2015-12-14T09:55:50Z</time>
      </trkpt>
      <trkpt lat="46.2377" lon="-0.89124">
        <ele>26</ele>
        <time>2015-12-14T09:56:03Z</time>
      </trkpt>
      <trkpt lat="46.23788" lon="-0.89124">
        <ele>26</ele>
        <time>2015-12-14T09:56:15Z</time>
      </trkpt>
      <trkpt lat="46.23808" lon="-0.89123">
        <ele>26.1</ele>
        <time>2015-12-14T09:56:27Z</time>
      </trkpt>
      <trkpt lat="46.23827" lon="-0.89121">
        <ele>26.8</ele>
        <time>2015-12-14T09:56:39Z</time>
      </trkpt>
      <trkpt lat="46.23845" lon="-0.8912">
        <ele>27</ele>
        <time>2015-12-14T09:56:51Z</time>
      </trkpt>
      <trkpt lat="46.23864" lon="-0.89118">
        <ele>27</ele>
        <time>2015-12-14T09:57:04Z</time>
      </trkpt>
      <trkpt lat="46.23883" lon="-0.89115">
        <ele>27</ele>
        <time>2015-12-14T09:57:16Z</time>
      </trkpt>
      <trkpt lat="46.23902" lon="-0.89115">
        <ele>27.4</ele>
        <time>2015-12-14T09:57:28Z</time>
      </trkpt>
      <trkpt lat="46.23922" lon="-0.89117">
        <ele>27.8</ele>
        <time>2015-12-14T09:57:40Z</time>
      </trkpt>
      <trkpt lat="46.2394" lon="-0.89118">
        <ele>28</ele>
        <time>2015-12-14T09:57:52Z</time>
      </trkpt>
      <trkpt lat="46.23959" lon="-0.89119">
        <ele>28</ele>
        <time>2015-12-14T09:58:05Z</time>
      </trkpt>
      <trkpt lat="46.23978" lon="-0.89119">
        <ele>28</ele>
        <time>2015-12-14T09:58:17Z</time>
      </trkpt>
      <trkpt lat="46.23998" lon="-0.89119">
        <ele>28</ele>
        <time>2015-12-14T09:58:29Z</time>
      </trkpt>
      <trkpt lat="46.24016" lon="-0.89118">
        <ele>28</ele>
        <time>2015-12-14T09:58:40Z</time>
      </trkpt>
      <trkpt lat="46.24034" lon="-0.89116">
        <ele>27.8</ele>
        <time>2015-12-14T09:58:51Z</time>
      </trkpt>
      <trkpt lat="46.24053" lon="-0.89115">
        <ele>27.1</ele>
        <time>2015-12-14T09:59:03Z</time>
      </trkpt>
      <trkpt lat="46.24071" lon="-0.89116">
        <ele>26.5</ele>
        <time>2015-12-14T09:59:14Z</time>
      </trkpt>
      <trkpt lat="46.24089" lon="-0.89118">
        <ele>25.8</ele>
        <time>2015-12-14T09:59:25Z</time>
      </trkpt>
      <trkpt lat="46.24108" lon="-0.89119">
        <ele>25.1</ele>
        <time>2015-12-14T09:59:37Z</time>
      </trkpt>
      <trkpt lat="46.24128" lon="-0.89122">
        <ele>23.8</ele>
        <time>2015-12-14T09:59:49Z</time>
      </trkpt>
      <trkpt lat="46.24148" lon="-0.89122">
        <ele>22.7</ele>
        <time>2015-12-14T10:00:00Z</time>
      </trkpt>
      <trkpt lat="46.24166" lon="-0.89123">
        <ele>22</ele>
        <time>2015-12-14T10:00:11Z</time>
      </trkpt>
      <trkpt lat="46.24186" lon="-0.89122">
        <ele>20.6</ele>
        <time>2015-12-14T10:00:22Z</time>
      </trkpt>
      <trkpt lat="46.24205" lon="-0.89118">
        <ele>19.6</ele>
        <time>2015-12-14T10:00:33Z</time>
      </trkpt>
      <trkpt lat="46.24224" lon="-0.89115">
        <ele>18.9</ele>
        <time>2015-12-14T10:00:44Z</time>
      </trkpt>
      <trkpt lat="46.24242" lon="-0.89112">
        <ele>18.3</ele>
        <time>2015-12-14T10:00:55Z</time>
      </trkpt>
      <trkpt lat="46.24261" lon="-0.89109">
        <ele>17.6</ele>
        <time>2015-12-14T10:01:07Z</time>
      </trkpt>
      <trkpt lat="46.2428" lon="-0.89105">
        <ele>16.9</ele>
        <time>2015-12-14T10:01:19Z</time>
      </trkpt>
      <trkpt lat="46.24298" lon="-0.89102">
        <ele>16.3</ele>
        <time>2015-12-14T10:01:30Z</time>
      </trkpt>
      <trkpt lat="46.24318" lon="-0.89102">
        <ele>15.6</ele>
        <time>2015-12-14T10:01:41Z</time>
      </trkpt>
      <trkpt lat="46.24336" lon="-0.89101">
        <ele>15</ele>
        <time>2015-12-14T10:01:52Z</time>
      </trkpt>
      <trkpt lat="46.24355" lon="-0.891">
        <ele>15</ele>
        <time>2015-12-14T10:02:03Z</time>
      </trkpt>
      <trkpt lat="46.24374" lon="-0.891">
        <ele>14.7</ele>
        <time>2015-12-14T10:02:14Z</time>
      </trkpt>
      <trkpt lat="46.24394" lon="-0.89099">
        <ele>14.4</ele>
        <time>2015-12-14T10:02:26Z</time>
      </trkpt>
      <trkpt lat="46.24413" lon="-0.89099">
        <ele>14.4</ele>
        <time>2015-12-14T10:02:37Z</time>
      </trkpt>
      <trkpt lat="46.24431" lon="-0.89099">
        <ele>14.2</ele>
        <time>2015-12-14T10:02:47Z</time>
      </trkpt>
      <trkpt lat="46.2445" lon="-0.89102">
        <ele>13.9</ele>
        <time>2015-12-14T10:02:58Z</time>
      </trkpt>
      <trkpt lat="46.24469" lon="-0.89103">
        <ele>13.4</ele>
        <time>2015-12-14T10:03:08Z</time>
      </trkpt>
      <trkpt lat="46.24489" lon="-0.89104">
        <ele>13.3</ele>
        <time>2015-12-14T10:03:19Z</time>
      </trkpt>
      <trkpt lat="46.24508" lon="-0.89103">
        <ele>13.3</ele>
        <time>2015-12-14T10:03:30Z</time>
      </trkpt>
      <trkpt lat="46.24526" lon="-0.89106">
        <ele>13.2</ele>
        <time>2015-12-14T10:03:41Z</time>
      </trkpt>
      <trkpt lat="46.24544" lon="-0.89112">
        <ele>13.6</ele>
        <time>2015-12-14T10:03:52Z</time>
      </trkpt>
      <trkpt lat="46.24563" lon="-0.89118">
        <ele>13.8</ele>
        <time>2015-12-14T10:04:03Z</time>
      </trkpt>
      <trkpt lat="46.24581" lon="-0.89126">
        <ele>14</ele>
        <time>2015-12-14T10:04:14Z</time>
      </trkpt>
      <trkpt lat="46.246" lon="-0.89132">
        <ele>13.9</ele>
        <time>2015-12-14T10:04:25Z</time>
      </trkpt>
      <trkpt lat="46.24617" lon="-0.8914">
        <ele>13.8</ele>
        <time>2015-12-14T10:04:36Z</time>
      </trkpt>
      <trkpt lat="46.24635" lon="-0.89147">
        <ele>13.4</ele>
        <time>2015-12-14T10:04:46Z</time>
      </trkpt>
      <trkpt lat="46.24652" lon="-0.89154">
        <ele>13.3</ele>
        <time>2015-12-14T10:04:56Z</time>
      </trkpt>
      <trkpt lat="46.2467" lon="-0.89162">
        <ele>13.5</ele>
        <time>2015-12-14T10:05:07Z</time>
      </trkpt>
      <trkpt lat="46.24688" lon="-0.89167">
        <ele>13.2</ele>
        <time>2015-12-14T10:05:17Z</time>
      </trkpt>
      <trkpt lat="46.24706" lon="-0.8917">
        <ele>12.2</ele>
        <time>2015-12-14T10:05:28Z</time>
      </trkpt>
      <trkpt lat="46.24724" lon="-0.89179">
        <ele>11.4</ele>
        <time>2015-12-14T10:05:39Z</time>
      </trkpt>
      <trkpt lat="46.24741" lon="-0.89188">
        <ele>11.2</ele>
        <time>2015-12-14T10:05:50Z</time>
      </trkpt>
      <trkpt lat="46.24759" lon="-0.892">
        <ele>10.9</ele>
        <time>2015-12-14T10:06:01Z</time>
      </trkpt>
      <trkpt lat="46.24775" lon="-0.89213">
        <ele>10.4</ele>
        <time>2015-12-14T10:06:12Z</time>
      </trkpt>
      <trkpt lat="46.24792" lon="-0.89226">
        <ele>10</ele>
        <time>2015-12-14T10:06:23Z</time>
      </trkpt>
      <trkpt lat="46.2481" lon="-0.89233">
        <ele>9.9</ele>
        <time>2015-12-14T10:06:34Z</time>
      </trkpt>
      <trkpt lat="46.24829" lon="-0.89233">
        <ele>9.7</ele>
        <time>2015-12-14T10:06:45Z</time>
      </trkpt>
      <trkpt lat="46.24848" lon="-0.89231">
        <ele>8.8</ele>
        <time>2015-12-14T10:06:56Z</time>
      </trkpt>
      <trkpt lat="46.24867" lon="-0.89225">
        <ele>7.8</ele>
        <time>2015-12-14T10:07:07Z</time>
      </trkpt>
      <trkpt lat="46.24886" lon="-0.89222">
        <ele>7.1</ele>
        <time>2015-12-14T10:07:19Z</time>
      </trkpt>
      <trkpt lat="46.24905" lon="-0.89219">
        <ele>7</ele>
        <time>2015-12-14T10:07:31Z</time>
      </trkpt>
      <trkpt lat="46.24923" lon="-0.89216">
        <ele>7</ele>
        <time>2015-12-14T10:07:42Z</time>
      </trkpt>
      <trkpt lat="46.24942" lon="-0.89213">
        <ele>7</ele>
        <time>2015-12-14T10:07:53Z</time>
      </trkpt>
      <trkpt lat="46.24961" lon="-0.8921">
        <ele>6.4</ele>
        <time>2015-12-14T10:08:04Z</time>
      </trkpt>
      <trkpt lat="46.2498" lon="-0.89205">
        <ele>6</ele>
        <time>2015-12-14T10:08:15Z</time>
      </trkpt>
      <trkpt lat="46.24999" lon="-0.89202">
        <ele>6</ele>
        <time>2015-12-14T10:08:27Z</time>
      </trkpt>
      <trkpt lat="46.25017" lon="-0.89195">
        <ele>5.4</ele>
        <time>2015-12-14T10:08:39Z</time>
      </trkpt>
      <trkpt lat="46.25036" lon="-0.89188">
        <ele>5</ele>
        <time>2015-12-14T10:08:51Z</time>
      </trkpt>
      <trkpt lat="46.25053" lon="-0.8918">
        <ele>5</ele>
        <time>2015-12-14T10:09:04Z</time>
      </trkpt>
      <trkpt lat="46.25054" lon="-0.89179">
        <ele>5</ele>
        <time>2015-12-14T10:09:05Z</time>
      </trkpt>
      <trkpt lat="46.2506" lon="-0.89162">
        <ele>5</ele>
        <time>2015-12-14T10:09:50Z</time>
      </trkpt>
      <trkpt lat="46.25061" lon="-0.89161">
        <ele>5</ele>
        <time>2015-12-14T10:09:51Z</time>
      </trkpt>
      <trkpt lat="46.2506" lon="-0.89134">
        <ele>5</ele>
        <time>2015-12-14T10:10:03Z</time>
      </trkpt>
      <trkpt lat="46.25059" lon="-0.89108">
        <ele>4.9</ele>
        <time>2015-12-14T10:10:14Z</time>
      </trkpt>
      <trkpt lat="46.25056" lon="-0.89082">
        <ele>5</ele>
        <time>2015-12-14T10:10:25Z</time>
      </trkpt>
      <trkpt lat="46.25047" lon="-0.89057">
        <ele>4.7</ele>
        <time>2015-12-14T10:10:37Z</time>
      </trkpt>
      <trkpt lat="46.25038" lon="-0.89032">
        <ele>4.1</ele>
        <time>2015-12-14T10:10:50Z</time>
      </trkpt>
      <trkpt lat="46.25029" lon="-0.8901">
        <ele>4.6</ele>
        <time>2015-12-14T10:11:01Z</time>
      </trkpt>
      <trkpt lat="46.25018" lon="-0.88987">
        <ele>4.3</ele>
        <time>2015-12-14T10:11:13Z</time>
      </trkpt>
      <trkpt lat="46.25009" lon="-0.88964">
        <ele>4.2</ele>
        <time>2015-12-14T10:11:25Z</time>
      </trkpt>
      <trkpt lat="46.25001" lon="-0.88941">
        <ele>4.8</ele>
        <time>2015-12-14T10:11:36Z</time>
      </trkpt>
      <trkpt lat="46.24995" lon="-0.88916">
        <ele>4.2</ele>
        <time>2015-12-14T10:11:47Z</time>
      </trkpt>
      <trkpt lat="46.2499" lon="-0.88891">
        <ele>4</ele>
        <time>2015-12-14T10:11:59Z</time>
      </trkpt>
      <trkpt lat="46.24985" lon="-0.88863">
        <ele>4.5</ele>
        <time>2015-12-14T10:12:11Z</time>
      </trkpt>
      <trkpt lat="46.2498" lon="-0.88836">
        <ele>4.1</ele>
        <time>2015-12-14T10:12:22Z</time>
      </trkpt>
      <trkpt lat="46.24978" lon="-0.88809">
        <ele>4.7</ele>
        <time>2015-12-14T10:12:34Z</time>
      </trkpt>
      <trkpt lat="46.24984" lon="-0.88783">
        <ele>4.9</ele>
        <time>2015-12-14T10:12:46Z</time>
      </trkpt>
      <trkpt lat="46.24997" lon="-0.88764">
        <ele>5</ele>
        <time>2015-12-14T10:12:57Z</time>
      </trkpt>
      <trkpt lat="46.2501" lon="-0.88746">
        <ele>4.6</ele>
        <time>2015-12-14T10:13:08Z</time>
      </trkpt>
      <trkpt lat="46.25026" lon="-0.88731">
        <ele>4.6</ele>
        <time>2015-12-14T10:13:19Z</time>
      </trkpt>
      <trkpt lat="46.25043" lon="-0.88721">
        <ele>5</ele>
        <time>2015-12-14T10:13:30Z</time>
      </trkpt>
      <trkpt lat="46.25061" lon="-0.88713">
        <ele>5</ele>
        <time>2015-12-14T10:13:41Z</time>
      </trkpt>
      <trkpt lat="46.25078" lon="-0.88703">
        <ele>5</ele>
        <time>2015-12-14T10:13:52Z</time>
      </trkpt>
      <trkpt lat="46.25096" lon="-0.88694">
        <ele>5</ele>
        <time>2015-12-14T10:14:04Z</time>
      </trkpt>
      <trkpt lat="46.25115" lon="-0.88685">
        <ele>5</ele>
        <time>2015-12-14T10:14:16Z</time>
      </trkpt>
      <trkpt lat="46.25133" lon="-0.88676">
        <ele>5</ele>
        <time>2015-12-14T10:14:28Z</time>
      </trkpt>
      <trkpt lat="46.25134" lon="-0.88674">
        <ele>5</ele>
        <time>2015-12-14T10:14:29Z</time>
      </trkpt>
      <trkpt lat="46.25136" lon="-0.88663">
        <ele>5</ele>
        <time>2015-12-14T10:14:34Z</time>
      </trkpt>
      <trkpt lat="46.25136" lon="-0.88653">
        <ele>5</ele>
        <time>2015-12-14T10:14:39Z</time>
      </trkpt>
      <trkpt lat="46.25137" lon="-0.88652">
        <ele>5</ele>
        <time>2015-12-14T10:14:41Z</time>
      </trkpt>
      <trkpt lat="46.25154" lon="-0.88641">
        <ele>5.5</ele>
        <time>2015-12-14T10:14:54Z</time>
      </trkpt>
      <trkpt lat="46.25172" lon="-0.88637">
        <ele>5.9</ele>
        <time>2015-12-14T10:15:12Z</time>
      </trkpt>
      <trkpt lat="46.25174" lon="-0.88636">
        <ele>5.9</ele>
        <time>2015-12-14T10:15:14Z</time>
      </trkpt>
    </trkseg>
  </trk>
</gpx>